sensor_id;sensor_type;location;lat;lon;timestamp;temperature;humidity
17619;DHT22;8928;51.678;6.074;2024-01-30T00:01:46;5.00;99.90
17619;DHT22;8928;51.678;6.074;2024-01-30T00:04:33;4.90;99.90
17619;DHT22;8928;51.678;6.074;2024-01-30T00:07:20;4.90;99.90
17619;DHT22;8928;51.678;6.074;2024-01-30T00:10:07;4.90;99.90
17619;DHT22;8928;51.678;6.074;2024-01-30T00:12:56;4.90;99.90
17619;DHT22;8928;51.678;6.074;2024-01-30T00:15:43;4.90;99.90
17619;DHT22;8928;51.678;6.074;2024-01-30T00:18:30;4.90;99.90
17619;DHT22;8928;51.678;6.074;2024-01-30T00:21:17;4.80;99.90
17619;DHT22;8928;51.678;6.074;2024-01-30T00:24:05;4.80;99.90
17619;DHT22;8928;51.678;6.074;2024-01-30T00:26:52;4.70;99.90
17619;DHT22;8928;51.678;6.074;2024-01-30T00:29:40;4.70;99.90
17619;DHT22;8928;51.678;6.074;2024-01-30T00:32:27;4.70;99.90
17619;DHT22;8928;51.678;6.074;2024-01-30T00:35:14;4.70;99.90
17619;DHT22;8928;51.678;6.074;2024-01-30T00:38:01;4.70;99.90
17619;DHT22;8928;51.678;6.074;2024-01-30T00:40:48;4.70;99.90
17619;DHT22;8928;51.678;6.074;2024-01-30T00:43:36;4.60;99.90
17619;DHT22;8928;51.678;6.074;2024-01-30T00:46:24;4.60;99.90
17619;DHT22;8928;51.678;6.074;2024-01-30T00:49:11;4.60;99.90
17619;DHT22;8928;51.678;6.074;2024-01-30T00:51:58;4.50;99.90
17619;DHT22;8928;51.678;6.074;2024-01-30T00:54:45;4.50;99.90
17619;DHT22;8928;51.678;6.074;2024-01-30T00:57:32;4.50;99.90
17619;DHT22;8928;51.678;6.074;2024-01-30T01:00:19;4.50;99.90
17619;DHT22;8928;51.678;6.074;2024-01-30T01:03:08;4.50;99.90
17619;DHT22;8928;51.678;6.074;2024-01-30T01:05:55;4.50;99.90
17619;DHT22;8928;51.678;6.074;2024-01-30T01:08:42;4.50;99.90
17619;DHT22;8928;51.678;6.074;2024-01-30T01:11:29;4.50;99.90
17619;DHT22;8928;51.678;6.074;2024-01-30T01:14:16;4.50;99.90
17619;DHT22;8928;51.678;6.074;2024-01-30T01:17:03;4.50;99.90
17619;DHT22;8928;51.678;6.074;2024-01-30T01:19:51;4.50;99.90
17619;DHT22;8928;51.678;6.074;2024-01-30T01:22:38;4.50;99.90
17619;DHT22;8928;51.678;6.074;2024-01-30T01:25:26;4.60;99.90
17619;DHT22;8928;51.678;6.074;2024-01-30T01:28:13;4.60;99.90
17619;DHT22;8928;51.678;6.074;2024-01-30T01:31:00;4.50;99.90
17619;DHT22;8928;51.678;6.074;2024-01-30T01:33:51;4.50;99.90
17619;DHT22;8928;51.678;6.074;2024-01-30T01:36:39;4.60;99.90
17619;DHT22;8928;51.678;6.074;2024-01-30T01:39:26;4.60;99.90
17619;DHT22;8928;51.678;6.074;2024-01-30T01:42:13;4.60;99.90
17619;DHT22;8928;51.678;6.074;2024-01-30T01:45:00;4.50;99.90
17619;DHT22;8928;51.678;6.074;2024-01-30T01:47:50;4.60;99.90
17619;DHT22;8928;51.678;6.074;2024-01-30T01:50:38;4.60;99.90
17619;DHT22;8928;51.678;6.074;2024-01-30T01:53:26;4.60;99.90
17619;DHT22;8928;51.678;6.074;2024-01-30T01:56:14;4.70;99.90
17619;DHT22;8928;51.678;6.074;2024-01-30T01:59:05;4.70;99.90
17619;DHT22;8928;51.678;6.074;2024-01-30T02:01:54;4.80;99.90
17619;DHT22;8928;51.678;6.074;2024-01-30T02:04:42;4.70;99.90
17619;DHT22;8928;51.678;6.074;2024-01-30T02:07:29;4.70;99.90
17619;DHT22;8928;51.678;6.074;2024-01-30T02:10:17;4.80;99.90
17619;DHT22;8928;51.678;6.074;2024-01-30T02:13:04;4.80;99.90
17619;DHT22;8928;51.678;6.074;2024-01-30T02:15:51;4.80;99.90
17619;DHT22;8928;51.678;6.074;2024-01-30T02:18:38;4.70;99.90
17619;DHT22;8928;51.678;6.074;2024-01-30T02:21:30;4.70;99.90
17619;DHT22;8928;51.678;6.074;2024-01-30T02:24:17;4.80;99.90
17619;DHT22;8928;51.678;6.074;2024-01-30T02:27:04;4.80;99.90
17619;DHT22;8928;51.678;6.074;2024-01-30T02:29:52;4.80;99.90
17619;DHT22;8928;51.678;6.074;2024-01-30T02:32:39;4.80;99.90
17619;DHT22;8928;51.678;6.074;2024-01-30T02:35:26;4.90;99.90
17619;DHT22;8928;51.678;6.074;2024-01-30T02:38:15;4.90;99.90
17619;DHT22;8928;51.678;6.074;2024-01-30T02:41:02;4.90;99.90
17619;DHT22;8928;51.678;6.074;2024-01-30T02:43:49;4.90;99.90
17619;DHT22;8928;51.678;6.074;2024-01-30T02:46:36;4.90;99.90
17619;DHT22;8928;51.678;6.074;2024-01-30T02:49:23;5.00;99.90
17619;DHT22;8928;51.678;6.074;2024-01-30T02:52:10;4.90;99.90
17619;DHT22;8928;51.678;6.074;2024-01-30T02:54:58;4.90;99.90
17619;DHT22;8928;51.678;6.074;2024-01-30T02:57:46;4.90;99.90
17619;DHT22;8928;51.678;6.074;2024-01-30T03:00:33;4.90;99.90
17619;DHT22;8928;51.678;6.074;2024-01-30T03:03:20;4.90;99.90
17619;DHT22;8928;51.678;6.074;2024-01-30T03:06:07;4.80;99.90
17619;DHT22;8928;51.678;6.074;2024-01-30T03:08:54;4.80;99.90
17619;DHT22;8928;51.678;6.074;2024-01-30T03:11:42;4.70;99.90
17619;DHT22;8928;51.678;6.074;2024-01-30T03:14:30;4.70;99.90
17619;DHT22;8928;51.678;6.074;2024-01-30T03:17:17;4.70;99.90
17619;DHT22;8928;51.678;6.074;2024-01-30T03:20:05;4.70;99.90
17619;DHT22;8928;51.678;6.074;2024-01-30T03:22:54;4.80;99.90
17619;DHT22;8928;51.678;6.074;2024-01-30T03:25:41;4.80;99.90
17619;DHT22;8928;51.678;6.074;2024-01-30T03:28:30;4.90;99.90
17619;DHT22;8928;51.678;6.074;2024-01-30T03:31:17;4.90;99.90
17619;DHT22;8928;51.678;6.074;2024-01-30T03:34:04;4.90;99.90
17619;DHT22;8928;51.678;6.074;2024-01-30T03:36:51;4.90;99.90
17619;DHT22;8928;51.678;6.074;2024-01-30T03:39:38;5.00;99.90
17619;DHT22;8928;51.678;6.074;2024-01-30T03:42:25;5.00;99.90
17619;DHT22;8928;51.678;6.074;2024-01-30T03:45:15;5.10;99.90
17619;DHT22;8928;51.678;6.074;2024-01-30T03:48:06;5.10;99.90
17619;DHT22;8928;51.678;6.074;2024-01-30T03:50:53;5.10;99.90
17619;DHT22;8928;51.678;6.074;2024-01-30T03:53:40;5.10;99.90
17619;DHT22;8928;51.678;6.074;2024-01-30T03:56:27;5.20;99.90
17619;DHT22;8928;51.678;6.074;2024-01-30T03:59:14;5.20;99.90
17619;DHT22;8928;51.678;6.074;2024-01-30T04:02:03;5.20;99.90
17619;DHT22;8928;51.678;6.074;2024-01-30T04:04:50;5.30;99.90
17619;DHT22;8928;51.678;6.074;2024-01-30T04:07:37;5.30;99.90
17619;DHT22;8928;51.678;6.074;2024-01-30T04:10:24;5.30;99.90
17619;DHT22;8928;51.678;6.074;2024-01-30T04:13:11;5.30;99.90
17619;DHT22;8928;51.678;6.074;2024-01-30T04:15:59;5.30;99.90
17619;DHT22;8928;51.678;6.074;2024-01-30T04:18:48;5.40;99.90
17619;DHT22;8928;51.678;6.074;2024-01-30T04:21:35;5.40;99.90
17619;DHT22;8928;51.678;6.074;2024-01-30T04:24:22;5.50;99.90
17619;DHT22;8928;51.678;6.074;2024-01-30T04:27:09;5.60;99.90
17619;DHT22;8928;51.678;6.074;2024-01-30T04:29:56;5.60;99.90
17619;DHT22;8928;51.678;6.074;2024-01-30T04:32:43;5.60;99.90
17619;DHT22;8928;51.678;6.074;2024-01-30T04:35:32;5.50;99.90
17619;DHT22;8928;51.678;6.074;2024-01-30T04:38:19;5.50;99.90
17619;DHT22;8928;51.678;6.074;2024-01-30T04:41:06;5.50;99.90
17619;DHT22;8928;51.678;6.074;2024-01-30T04:43:53;5.50;99.90
17619;DHT22;8928;51.678;6.074;2024-01-30T04:46:40;5.40;99.90
17619;DHT22;8928;51.678;6.074;2024-01-30T04:49:28;5.40;99.90
17619;DHT22;8928;51.678;6.074;2024-01-30T04:52:16;5.40;99.90
17619;DHT22;8928;51.678;6.074;2024-01-30T04:55:04;5.40;99.90
17619;DHT22;8928;51.678;6.074;2024-01-30T04:57:51;5.40;99.90
17619;DHT22;8928;51.678;6.074;2024-01-30T05:00:38;5.40;99.90
17619;DHT22;8928;51.678;6.074;2024-01-30T05:03:25;5.50;99.90
17619;DHT22;8928;51.678;6.074;2024-01-30T05:06:12;5.50;99.90
17619;DHT22;8928;51.678;6.074;2024-01-30T05:09:00;5.50;99.90
17619;DHT22;8928;51.678;6.074;2024-01-30T05:11:48;5.50;99.90
17619;DHT22;8928;51.678;6.074;2024-01-30T05:14:35;5.50;99.90
17619;DHT22;8928;51.678;6.074;2024-01-30T05:17:22;5.60;99.90
17619;DHT22;8928;51.678;6.074;2024-01-30T05:20:10;5.60;99.90
17619;DHT22;8928;51.678;6.074;2024-01-30T05:22:57;5.60;99.90
17619;DHT22;8928;51.678;6.074;2024-01-30T05:25:46;5.60;99.90
17619;DHT22;8928;51.678;6.074;2024-01-30T05:28:33;5.70;99.90
17619;DHT22;8928;51.678;6.074;2024-01-30T05:31:20;5.60;99.90
17619;DHT22;8928;51.678;6.074;2024-01-30T05:34:07;5.70;99.90
17619;DHT22;8928;51.678;6.074;2024-01-30T05:36:54;5.70;99.90
17619;DHT22;8928;51.678;6.074;2024-01-30T05:39:41;5.80;99.90
17619;DHT22;8928;51.678;6.074;2024-01-30T05:42:30;5.80;99.90
17619;DHT22;8928;51.678;6.074;2024-01-30T05:45:17;5.80;99.90
17619;DHT22;8928;51.678;6.074;2024-01-30T05:48:04;5.90;99.90
17619;DHT22;8928;51.678;6.074;2024-01-30T05:50:51;5.90;99.90
17619;DHT22;8928;51.678;6.074;2024-01-30T05:53:38;5.90;99.90
17619;DHT22;8928;51.678;6.074;2024-01-30T05:56:25;5.90;99.90
17619;DHT22;8928;51.678;6.074;2024-01-30T05:59:15;6.00;99.90
17619;DHT22;8928;51.678;6.074;2024-01-30T06:02:02;6.00;99.90
17619;DHT22;8928;51.678;6.074;2024-01-30T06:04:49;6.00;99.90
17619;DHT22;8928;51.678;6.074;2024-01-30T06:07:36;6.00;99.90
17619;DHT22;8928;51.678;6.074;2024-01-30T06:10:23;6.10;99.90
17619;DHT22;8928;51.678;6.074;2024-01-30T06:13:10;6.10;99.90
17619;DHT22;8928;51.678;6.074;2024-01-30T06:15:58;6.10;99.90
17619;DHT22;8928;51.678;6.074;2024-01-30T06:18:45;6.10;99.90
17619;DHT22;8928;51.678;6.074;2024-01-30T06:21:33;6.00;99.90
17619;DHT22;8928;51.678;6.074;2024-01-30T06:24:22;6.10;99.90
17619;DHT22;8928;51.678;6.074;2024-01-30T06:27:09;6.10;99.90
17619;DHT22;8928;51.678;6.074;2024-01-30T06:29:56;6.10;99.90
17619;DHT22;8928;51.678;6.074;2024-01-30T06:32:44;6.10;99.90
17619;DHT22;8928;51.678;6.074;2024-01-30T06:35:31;6.10;99.90
17619;DHT22;8928;51.678;6.074;2024-01-30T06:38:18;6.10;99.90
17619;DHT22;8928;51.678;6.074;2024-01-30T06:41:05;6.10;99.90
17619;DHT22;8928;51.678;6.074;2024-01-30T06:43:52;6.10;99.90
17619;DHT22;8928;51.678;6.074;2024-01-30T06:46:39;6.20;99.90
17619;DHT22;8928;51.678;6.074;2024-01-30T06:49:28;6.20;99.90
17619;DHT22;8928;51.678;6.074;2024-01-30T06:52:15;6.20;99.90
17619;DHT22;8928;51.678;6.074;2024-01-30T06:55:02;6.20;99.90
17619;DHT22;8928;51.678;6.074;2024-01-30T06:57:49;6.20;99.90
17619;DHT22;8928;51.678;6.074;2024-01-30T07:00:36;6.20;99.90
17619;DHT22;8928;51.678;6.074;2024-01-30T07:03:24;6.20;99.90
17619;DHT22;8928;51.678;6.074;2024-01-30T07:06:12;6.20;99.90
17619;DHT22;8928;51.678;6.074;2024-01-30T07:08:59;6.30;99.90
17619;DHT22;8928;51.678;6.074;2024-01-30T07:11:46;6.30;99.90
17619;DHT22;8928;51.678;6.074;2024-01-30T07:14:33;6.40;99.90
17619;DHT22;8928;51.678;6.074;2024-01-30T07:17:21;6.40;99.90
17619;DHT22;8928;51.678;6.074;2024-01-30T07:20:08;6.40;99.90
17619;DHT22;8928;51.678;6.074;2024-01-30T07:22:57;6.50;99.90
17619;DHT22;8928;51.678;6.074;2024-01-30T07:25:45;6.40;99.90
17619;DHT22;8928;51.678;6.074;2024-01-30T07:28:32;6.50;99.90
17619;DHT22;8928;51.678;6.074;2024-01-30T07:31:19;6.50;99.90
17619;DHT22;8928;51.678;6.074;2024-01-30T07:34:09;6.50;99.90
17619;DHT22;8928;51.678;6.074;2024-01-30T07:36:56;6.50;99.90
17619;DHT22;8928;51.678;6.074;2024-01-30T07:39:44;6.60;99.90
17619;DHT22;8928;51.678;6.074;2024-01-30T07:42:31;6.60;99.90
17619;DHT22;8928;51.678;6.074;2024-01-30T07:45:19;6.60;99.90
17619;DHT22;8928;51.678;6.074;2024-01-30T07:48:08;6.60;99.90
17619;DHT22;8928;51.678;6.074;2024-01-30T07:50:55;6.60;99.90
17619;DHT22;8928;51.678;6.074;2024-01-30T07:53:42;6.60;99.90
17619;DHT22;8928;51.678;6.074;2024-01-30T07:56:30;6.60;99.90
17619;DHT22;8928;51.678;6.074;2024-01-30T07:59:17;6.70;99.90
17619;DHT22;8928;51.678;6.074;2024-01-30T08:02:07;6.70;99.90
17619;DHT22;8928;51.678;6.074;2024-01-30T08:04:54;6.70;99.90
17619;DHT22;8928;51.678;6.074;2024-01-30T08:07:41;6.80;99.90
17619;DHT22;8928;51.678;6.074;2024-01-30T08:10:28;6.80;99.90
17619;DHT22;8928;51.678;6.074;2024-01-30T08:13:17;6.80;99.90
17619;DHT22;8928;51.678;6.074;2024-01-30T08:16:05;6.90;99.90
17619;DHT22;8928;51.678;6.074;2024-01-30T08:18:52;7.00;99.90
17619;DHT22;8928;51.678;6.074;2024-01-30T08:21:42;7.00;99.90
17619;DHT22;8928;51.678;6.074;2024-01-30T08:24:29;7.00;99.90
17619;DHT22;8928;51.678;6.074;2024-01-30T08:27:16;7.00;99.90
17619;DHT22;8928;51.678;6.074;2024-01-30T08:30:06;7.10;99.90
17619;DHT22;8928;51.678;6.074;2024-01-30T08:32:53;7.10;99.90
17619;DHT22;8928;51.678;6.074;2024-01-30T08:35:40;7.30;99.90
17619;DHT22;8928;51.678;6.074;2024-01-30T08:38:27;7.40;99.90
17619;DHT22;8928;51.678;6.074;2024-01-30T08:41:14;7.50;99.90
17619;DHT22;8928;51.678;6.074;2024-01-30T08:44:01;7.70;99.90
17619;DHT22;8928;51.678;6.074;2024-01-30T08:46:51;7.80;99.90
17619;DHT22;8928;51.678;6.074;2024-01-30T08:49:38;7.90;99.90
17619;DHT22;8928;51.678;6.074;2024-01-30T08:52:26;8.00;99.90
17619;DHT22;8928;51.678;6.074;2024-01-30T08:55:13;8.00;99.90
17619;DHT22;8928;51.678;6.074;2024-01-30T08:58:00;8.10;99.90
17619;DHT22;8928;51.678;6.074;2024-01-30T09:00:49;8.20;99.90
17619;DHT22;8928;51.678;6.074;2024-01-30T09:03:38;8.20;99.90
17619;DHT22;8928;51.678;6.074;2024-01-30T09:06:26;8.30;99.90
17619;DHT22;8928;51.678;6.074;2024-01-30T09:09:14;8.30;99.90
17619;DHT22;8928;51.678;6.074;2024-01-30T09:12:02;8.40;99.90
17619;DHT22;8928;51.678;6.074;2024-01-30T09:14:52;8.50;99.90
17619;DHT22;8928;51.678;6.074;2024-01-30T09:17:40;8.60;99.90
17619;DHT22;8928;51.678;6.074;2024-01-30T09:20:29;8.70;99.90
17619;DHT22;8928;51.678;6.074;2024-01-30T09:23:16;8.80;99.90
17619;DHT22;8928;51.678;6.074;2024-01-30T09:26:04;9.00;99.90
17619;DHT22;8928;51.678;6.074;2024-01-30T09:28:51;9.10;99.90
17619;DHT22;8928;51.678;6.074;2024-01-30T09:31:38;9.30;99.90
17619;DHT22;8928;51.678;6.074;2024-01-30T09:34:25;9.40;99.90
17619;DHT22;8928;51.678;6.074;2024-01-30T09:37:14;9.50;99.90
17619;DHT22;8928;51.678;6.074;2024-01-30T09:40:04;9.60;99.90
17619;DHT22;8928;51.678;6.074;2024-01-30T09:42:52;9.70;99.90
17619;DHT22;8928;51.678;6.074;2024-01-30T09:45:40;9.80;99.90
17619;DHT22;8928;51.678;6.074;2024-01-30T09:48:30;9.90;99.90
17619;DHT22;8928;51.678;6.074;2024-01-30T09:51:17;10.00;99.90
17619;DHT22;8928;51.678;6.074;2024-01-30T09:54:07;10.10;99.90
17619;DHT22;8928;51.678;6.074;2024-01-30T09:56:55;10.20;99.90
17619;DHT22;8928;51.678;6.074;2024-01-30T09:59:42;10.40;99.90
17619;DHT22;8928;51.678;6.074;2024-01-30T10:02:30;10.60;99.90
17619;DHT22;8928;51.678;6.074;2024-01-30T10:05:19;10.80;99.90
17619;DHT22;8928;51.678;6.074;2024-01-30T10:08:07;11.00;99.90
17619;DHT22;8928;51.678;6.074;2024-01-30T10:10:55;11.00;99.90
17619;DHT22;8928;51.678;6.074;2024-01-30T10:13:43;11.00;99.90
17619;DHT22;8928;51.678;6.074;2024-01-30T10:16:30;10.90;99.90
17619;DHT22;8928;51.678;6.074;2024-01-30T10:19:17;10.90;99.90
17619;DHT22;8928;51.678;6.074;2024-01-30T10:22:04;10.80;99.90
17619;DHT22;8928;51.678;6.074;2024-01-30T10:24:51;10.80;99.90
17619;DHT22;8928;51.678;6.074;2024-01-30T10:27:40;10.80;99.90
17619;DHT22;8928;51.678;6.074;2024-01-30T10:30:28;10.80;99.90
17619;DHT22;8928;51.678;6.074;2024-01-30T10:33:15;10.80;99.90
17619;DHT22;8928;51.678;6.074;2024-01-30T10:36:03;10.70;99.90
17619;DHT22;8928;51.678;6.074;2024-01-30T10:38:51;10.80;99.90
17619;DHT22;8928;51.678;6.074;2024-01-30T10:41:43;11.00;99.90
17619;DHT22;8928;51.678;6.074;2024-01-30T10:44:37;11.20;99.90
17619;DHT22;8928;51.678;6.074;2024-01-30T10:47:27;11.40;99.90
17619;DHT22;8928;51.678;6.074;2024-01-30T10:50:14;11.50;99.90
17619;DHT22;8928;51.678;6.074;2024-01-30T10:53:02;11.50;99.90
17619;DHT22;8928;51.678;6.074;2024-01-30T10:55:51;11.50;99.90
17619;DHT22;8928;51.678;6.074;2024-01-30T10:58:39;11.40;99.90
17619;DHT22;8928;51.678;6.074;2024-01-30T11:01:28;11.30;99.90
17619;DHT22;8928;51.678;6.074;2024-01-30T11:04:15;11.20;99.90
17619;DHT22;8928;51.678;6.074;2024-01-30T11:07:02;11.10;99.90
17619;DHT22;8928;51.678;6.074;2024-01-30T11:09:50;11.10;99.90
17619;DHT22;8928;51.678;6.074;2024-01-30T11:12:38;11.20;99.90
17619;DHT22;8928;51.678;6.074;2024-01-30T11:15:26;11.30;99.90
17619;DHT22;8928;51.678;6.074;2024-01-30T11:18:25;11.40;99.90
17619;DHT22;8928;51.678;6.074;2024-01-30T11:21:13;11.70;99.90
17619;DHT22;8928;51.678;6.074;2024-01-30T11:24:02;12.00;99.90
17619;DHT22;8928;51.678;6.074;2024-01-30T11:26:55;12.10;99.90
17619;DHT22;8928;51.678;6.074;2024-01-30T11:29:42;12.00;99.90
17619;DHT22;8928;51.678;6.074;2024-01-30T11:32:29;12.00;99.90
17619;DHT22;8928;51.678;6.074;2024-01-30T11:35:17;11.90;99.90
17619;DHT22;8928;51.678;6.074;2024-01-30T11:38:06;11.90;99.90
17619;DHT22;8928;51.678;6.074;2024-01-30T11:40:54;11.80;99.90
17619;DHT22;8928;51.678;6.074;2024-01-30T11:43:41;11.80;99.90
17619;DHT22;8928;51.678;6.074;2024-01-30T11:46:28;11.90;99.90
17619;DHT22;8928;51.678;6.074;2024-01-30T11:49:16;12.20;99.90
17619;DHT22;8928;51.678;6.074;2024-01-30T11:52:05;12.30;99.90
17619;DHT22;8928;51.678;6.074;2024-01-30T11:54:53;12.40;99.90
17619;DHT22;8928;51.678;6.074;2024-01-30T11:57:41;12.30;99.90
17619;DHT22;8928;51.678;6.074;2024-01-30T12:00:30;12.20;99.90
17619;DHT22;8928;51.678;6.074;2024-01-30T12:03:18;12.00;99.90
17619;DHT22;8928;51.678;6.074;2024-01-30T12:06:06;11.80;99.90
17619;DHT22;8928;51.678;6.074;2024-01-30T12:08:58;11.80;99.90
17619;DHT22;8928;51.678;6.074;2024-01-30T12:11:47;11.90;99.90
17619;DHT22;8928;51.678;6.074;2024-01-30T12:14:34;12.00;99.90
17619;DHT22;8928;51.678;6.074;2024-01-30T12:17:26;12.00;99.90
17619;DHT22;8928;51.678;6.074;2024-01-30T12:20:14;12.00;99.90
17619;DHT22;8928;51.678;6.074;2024-01-30T12:23:01;12.00;99.90
17619;DHT22;8928;51.678;6.074;2024-01-30T12:25:50;12.00;99.90
17619;DHT22;8928;51.678;6.074;2024-01-30T12:28:47;12.00;99.90
17619;DHT22;8928;51.678;6.074;2024-01-30T12:31:34;12.10;99.90
17619;DHT22;8928;51.678;6.074;2024-01-30T12:34:21;12.10;99.90
17619;DHT22;8928;51.678;6.074;2024-01-30T12:37:08;12.10;99.90
17619;DHT22;8928;51.678;6.074;2024-01-30T12:39:57;12.10;99.90
17619;DHT22;8928;51.678;6.074;2024-01-30T12:42:46;12.10;99.90
17619;DHT22;8928;51.678;6.074;2024-01-30T12:45:35;12.10;99.90
17619;DHT22;8928;51.678;6.074;2024-01-30T12:48:22;12.20;99.90
17619;DHT22;8928;51.678;6.074;2024-01-30T12:51:09;12.30;99.90
17619;DHT22;8928;51.678;6.074;2024-01-30T12:53:56;12.30;99.90
17619;DHT22;8928;51.678;6.074;2024-01-30T12:56:43;12.30;99.90
17619;DHT22;8928;51.678;6.074;2024-01-30T12:59:32;12.40;99.90
17619;DHT22;8928;51.678;6.074;2024-01-30T13:02:20;12.60;99.90
17619;DHT22;8928;51.678;6.074;2024-01-30T13:05:08;12.80;99.90
17619;DHT22;8928;51.678;6.074;2024-01-30T13:07:55;12.60;99.90
17619;DHT22;8928;51.678;6.074;2024-01-30T13:10:43;12.40;99.90
17619;DHT22;8928;51.678;6.074;2024-01-30T13:13:30;12.50;99.90
17619;DHT22;8928;51.678;6.074;2024-01-30T13:16:18;12.70;99.90
17619;DHT22;8928;51.678;6.074;2024-01-30T13:19:05;12.50;99.90
17619;DHT22;8928;51.678;6.074;2024-01-30T13:21:52;12.30;99.90
17619;DHT22;8928;51.678;6.074;2024-01-30T13:24:39;12.40;99.90
17619;DHT22;8928;51.678;6.074;2024-01-30T13:27:26;12.40;99.90
17619;DHT22;8928;51.678;6.074;2024-01-30T13:30:13;12.30;99.90
17619;DHT22;8928;51.678;6.074;2024-01-30T13:33:02;12.20;99.90
17619;DHT22;8928;51.678;6.074;2024-01-30T13:35:49;12.40;99.90
17619;DHT22;8928;51.678;6.074;2024-01-30T13:38:36;12.80;99.90
17619;DHT22;8928;51.678;6.074;2024-01-30T13:41:23;13.40;99.90
17619;DHT22;8928;51.678;6.074;2024-01-30T13:44:10;13.80;99.90
17619;DHT22;8928;51.678;6.074;2024-01-30T13:46:57;13.90;99.90
17619;DHT22;8928;51.678;6.074;2024-01-30T13:49:45;13.70;99.90
17619;DHT22;8928;51.678;6.074;2024-01-30T13:52:33;13.30;99.90
17619;DHT22;8928;51.678;6.074;2024-01-30T13:55:20;13.10;99.90
17619;DHT22;8928;51.678;6.074;2024-01-30T13:58:07;12.70;99.90
17619;DHT22;8928;51.678;6.074;2024-01-30T14:00:54;12.30;99.90
17619;DHT22;8928;51.678;6.074;2024-01-30T14:03:41;11.80;99.90
17619;DHT22;8928;51.678;6.074;2024-01-30T14:06:29;11.60;99.90
17619;DHT22;8928;51.678;6.074;2024-01-30T14:09:16;11.40;99.90
17619;DHT22;8928;51.678;6.074;2024-01-30T14:12:04;11.40;99.90
17619;DHT22;8928;51.678;6.074;2024-01-30T14:14:51;11.40;99.90
17619;DHT22;8928;51.678;6.074;2024-01-30T14:17:38;11.40;99.90
17619;DHT22;8928;51.678;6.074;2024-01-30T14:20:25;11.30;99.90
17619;DHT22;8928;51.678;6.074;2024-01-30T14:23:14;11.30;99.90
17619;DHT22;8928;51.678;6.074;2024-01-30T14:26:01;11.30;99.90
17619;DHT22;8928;51.678;6.074;2024-01-30T14:28:48;11.20;99.90
17619;DHT22;8928;51.678;6.074;2024-01-30T14:31:35;11.20;99.90
17619;DHT22;8928;51.678;6.074;2024-01-30T14:34:22;11.10;99.90
17619;DHT22;8928;51.678;6.074;2024-01-30T14:37:09;10.90;99.90
17619;DHT22;8928;51.678;6.074;2024-01-30T14:39:57;10.80;99.90
17619;DHT22;8928;51.678;6.074;2024-01-30T14:42:45;10.70;99.90
17619;DHT22;8928;51.678;6.074;2024-01-30T14:45:32;10.60;99.90
17619;DHT22;8928;51.678;6.074;2024-01-30T14:48:19;10.50;99.90
17619;DHT22;8928;51.678;6.074;2024-01-30T14:51:06;10.40;99.90
17619;DHT22;8928;51.678;6.074;2024-01-30T14:53:53;10.40;99.90
17619;DHT22;8928;51.678;6.074;2024-01-30T14:56:42;10.30;99.90
17619;DHT22;8928;51.678;6.074;2024-01-30T14:59:29;10.30;99.90
17619;DHT22;8928;51.678;6.074;2024-01-30T15:02:16;10.20;99.90
17619;DHT22;8928;51.678;6.074;2024-01-30T15:05:04;10.20;99.90
17619;DHT22;8928;51.678;6.074;2024-01-30T15:07:51;10.10;99.90
17619;DHT22;8928;51.678;6.074;2024-01-30T15:10:38;10.10;99.90
17619;DHT22;8928;51.678;6.074;2024-01-30T15:13:26;10.00;99.90
17619;DHT22;8928;51.678;6.074;2024-01-30T15:16:14;10.00;99.90
17619;DHT22;8928;51.678;6.074;2024-01-30T15:19:01;9.90;99.90
17619;DHT22;8928;51.678;6.074;2024-01-30T15:21:48;9.90;99.90
17619;DHT22;8928;51.678;6.074;2024-01-30T15:24:35;9.80;99.90
17619;DHT22;8928;51.678;6.074;2024-01-30T15:27:23;9.60;99.90
17619;DHT22;8928;51.678;6.074;2024-01-30T15:30:13;9.50;99.90
17619;DHT22;8928;51.678;6.074;2024-01-30T15:33:00;9.30;99.90
17619;DHT22;8928;51.678;6.074;2024-01-30T15:35:47;9.20;99.90
17619;DHT22;8928;51.678;6.074;2024-01-30T15:38:34;9.00;99.90
17619;DHT22;8928;51.678;6.074;2024-01-30T15:41:21;8.80;99.90
17619;DHT22;8928;51.678;6.074;2024-01-30T15:44:09;8.70;99.90
17619;DHT22;8928;51.678;6.074;2024-01-30T15:46:57;8.50;99.90
17619;DHT22;8928;51.678;6.074;2024-01-30T15:49:45;8.40;99.90
17619;DHT22;8928;51.678;6.074;2024-01-30T15:52:32;8.30;99.90
17619;DHT22;8928;51.678;6.074;2024-01-30T15:55:19;8.30;99.90
17619;DHT22;8928;51.678;6.074;2024-01-30T15:58:06;8.20;99.90
17619;DHT22;8928;51.678;6.074;2024-01-30T16:00:53;8.20;99.90
17619;DHT22;8928;51.678;6.074;2024-01-30T16:03:42;8.30;99.90
17619;DHT22;8928;51.678;6.074;2024-01-30T16:06:30;8.20;99.90
17619;DHT22;8928;51.678;6.074;2024-01-30T16:09:17;8.20;99.90
17619;DHT22;8928;51.678;6.074;2024-01-30T16:12:05;8.30;99.90
17619;DHT22;8928;51.678;6.074;2024-01-30T16:14:52;8.20;99.90
17619;DHT22;8928;51.678;6.074;2024-01-30T16:17:39;8.30;99.90
17619;DHT22;8928;51.678;6.074;2024-01-30T16:20:27;8.30;99.90
17619;DHT22;8928;51.678;6.074;2024-01-30T16:23:14;8.30;99.90
17619;DHT22;8928;51.678;6.074;2024-01-30T16:26:02;8.30;99.90
17619;DHT22;8928;51.678;6.074;2024-01-30T16:28:49;8.30;99.90
17619;DHT22;8928;51.678;6.074;2024-01-30T16:31:36;8.20;99.90
17619;DHT22;8928;51.678;6.074;2024-01-30T16:34:23;8.20;99.90
17619;DHT22;8928;51.678;6.074;2024-01-30T16:37:11;8.20;99.90
17619;DHT22;8928;51.678;6.074;2024-01-30T16:39:58;8.20;99.90
17619;DHT22;8928;51.678;6.074;2024-01-30T16:42:45;8.10;99.90
17619;DHT22;8928;51.678;6.074;2024-01-30T16:45:32;8.10;99.90
17619;DHT22;8928;51.678;6.074;2024-01-30T16:48:19;8.10;99.90
17619;DHT22;8928;51.678;6.074;2024-01-30T16:51:08;8.10;99.90
17619;DHT22;8928;51.678;6.074;2024-01-30T16:53:56;8.10;99.90
17619;DHT22;8928;51.678;6.074;2024-01-30T16:56:45;8.10;99.90
17619;DHT22;8928;51.678;6.074;2024-01-30T16:59:34;8.10;99.90
17619;DHT22;8928;51.678;6.074;2024-01-30T17:02:21;8.10;99.90
17619;DHT22;8928;51.678;6.074;2024-01-30T17:05:08;8.10;99.90
17619;DHT22;8928;51.678;6.074;2024-01-30T17:07:55;8.20;99.90
17619;DHT22;8928;51.678;6.074;2024-01-30T17:10:45;8.20;99.90
17619;DHT22;8928;51.678;6.074;2024-01-30T17:13:32;8.20;99.90
17619;DHT22;8928;51.678;6.074;2024-01-30T17:16:19;8.00;99.90
17619;DHT22;8928;51.678;6.074;2024-01-30T17:19:06;7.80;99.90
17619;DHT22;8928;51.678;6.074;2024-01-30T17:21:53;7.70;99.90
17619;DHT22;8928;51.678;6.074;2024-01-30T17:24:40;7.70;99.90
17619;DHT22;8928;51.678;6.074;2024-01-30T17:27:28;7.70;99.90
17619;DHT22;8928;51.678;6.074;2024-01-30T17:30:20;7.50;99.90
17619;DHT22;8928;51.678;6.074;2024-01-30T17:33:07;7.40;99.90
17619;DHT22;8928;51.678;6.074;2024-01-30T17:35:55;7.30;99.90
17619;DHT22;8928;51.678;6.074;2024-01-30T17:38:42;7.40;99.90
17619;DHT22;8928;51.678;6.074;2024-01-30T17:41:29;7.30;99.90
17619;DHT22;8928;51.678;6.074;2024-01-30T17:44:17;7.30;99.90
17619;DHT22;8928;51.678;6.074;2024-01-30T17:47:06;7.30;99.90
17619;DHT22;8928;51.678;6.074;2024-01-30T17:49:53;7.30;99.90
17619;DHT22;8928;51.678;6.074;2024-01-30T17:52:40;7.30;99.90
17619;DHT22;8928;51.678;6.074;2024-01-30T17:55:27;7.30;99.90
17619;DHT22;8928;51.678;6.074;2024-01-30T17:58:14;7.30;99.90
17619;DHT22;8928;51.678;6.074;2024-01-30T18:01:03;7.30;99.90
17619;DHT22;8928;51.678;6.074;2024-01-30T18:03:50;7.30;99.90
17619;DHT22;8928;51.678;6.074;2024-01-30T18:06:41;7.30;99.90
17619;DHT22;8928;51.678;6.074;2024-01-30T18:09:28;7.30;99.90